createdAt,value
2023-02-03T00:01:04.280Z,2.97
2023-02-03T00:03:31.115Z,3.07
2023-02-03T00:05:57.782Z,2.81
2023-02-03T00:08:24.649Z,2.94
2023-02-03T00:10:51.489Z,2.74
2023-02-03T00:13:18.387Z,3.06
2023-02-03T00:15:45.047Z,2.87
2023-02-03T00:18:12.153Z,3.02
2023-02-03T00:20:39.050Z,2.88
2023-02-03T00:23:10.712Z,3.11
2023-02-03T00:25:39.606Z,3.14
2023-02-03T00:28:06.991Z,3.03
2023-02-03T00:30:37.148Z,2.95
2023-02-03T00:33:04.562Z,3.23
2023-02-03T00:35:31.568Z,3.08
2023-02-03T00:37:58.744Z,2.80
2023-02-03T00:40:27.342Z,3.11
2023-02-03T00:42:55.132Z,3.29
2023-02-03T00:45:22.011Z,3.09
2023-02-03T00:47:48.851Z,2.90
2023-02-03T00:50:15.729Z,2.81
2023-02-03T00:52:42.657Z,2.96
2023-02-03T00:55:09.827Z,2.98
2023-02-03T00:57:36.697Z,2.82
2023-02-03T01:00:03.746Z,3.01
2023-02-03T01:02:30.630Z,3.06
2023-02-03T01:04:57.521Z,3.20
2023-02-03T01:07:24.191Z,2.90
2023-02-03T01:09:51.119Z,2.63
2023-02-03T01:12:17.973Z,3.27
2023-02-03T01:14:44.642Z,2.98
2023-02-03T01:17:11.496Z,3.22
2023-02-03T01:19:38.142Z,3.16
2023-02-03T01:22:05.080Z,2.74
2023-02-03T01:24:31.996Z,3.00
2023-02-03T01:26:58.652Z,2.80
2023-02-03T01:29:25.605Z,2.96
2023-02-03T01:31:52.649Z,3.02
2023-02-03T01:34:19.648Z,2.80
2023-02-03T01:36:46.990Z,2.65
2023-02-03T01:39:14.458Z,2.67
2023-02-03T01:41:41.850Z,2.61
2023-02-03T01:44:33.603Z,2.42
2023-02-03T01:47:00.606Z,2.35
2023-02-03T01:49:34.984Z,2.78
2023-02-03T01:52:02.137Z,2.68
2023-02-03T01:54:32.796Z,2.46
2023-02-03T01:57:03.842Z,2.27
2023-02-03T01:59:32.011Z,2.35
2023-02-03T02:01:59.384Z,2.45
2023-02-03T02:04:30.329Z,2.51
2023-02-03T02:06:58.277Z,2.92
2023-02-03T02:09:26.942Z,2.59
2023-02-03T02:11:53.804Z,2.65
2023-02-03T02:14:20.443Z,2.58
2023-02-03T02:16:58.625Z,2.41
2023-02-03T02:20:03.182Z,2.40
2023-02-03T02:22:51.674Z,2.41
2023-02-03T02:25:45.935Z,2.17
2023-02-03T02:28:27.223Z,2.50
2023-02-03T02:31:19.022Z,2.40
2023-02-03T02:33:55.123Z,2.48
2023-02-03T02:36:25.629Z,2.09
2023-02-03T02:39:12.989Z,2.26
2023-02-03T02:41:52.287Z,1.83
2023-02-03T02:44:33.523Z,2.11
2023-02-03T02:47:09.848Z,2.09
2023-02-03T02:49:58.906Z,1.86
2023-02-03T02:52:26.331Z,1.87
2023-02-03T02:54:55.117Z,1.99
2023-02-03T02:57:24.495Z,1.97
2023-02-03T02:59:51.385Z,2.09
2023-02-03T03:02:18.403Z,2.00
2023-02-03T03:04:47.246Z,2.08
2023-02-03T03:07:17.862Z,1.81
2023-02-03T03:09:47.765Z,2.12
2023-02-03T03:12:22.177Z,1.87
2023-02-03T03:14:53.796Z,1.53
2023-02-03T03:17:30.577Z,1.90
2023-02-03T03:20:01.025Z,2.19
2023-02-03T03:22:32.575Z,1.77
2023-02-03T03:25:05.825Z,1.95
2023-02-03T03:27:39.066Z,2.08
2023-02-03T03:30:10.976Z,1.51
2023-02-03T03:32:38.392Z,1.99
2023-02-03T03:35:06.083Z,2.08
2023-02-03T03:37:49.674Z,1.74
2023-02-03T03:40:26.168Z,1.75
2023-02-03T03:43:01.625Z,2.02
2023-02-03T03:45:42.573Z,1.71
2023-02-03T03:48:34.333Z,2.06
2023-02-03T03:51:05.462Z,2.46
2023-02-03T03:53:34.320Z,2.30
2023-02-03T03:56:02.022Z,2.20
2023-02-03T03:58:31.917Z,2.44
2023-02-03T04:01:02.335Z,2.07
2023-02-03T04:03:33.826Z,2.58
2023-02-03T04:06:00.706Z,2.23
2023-02-03T04:08:27.348Z,2.13
2023-02-03T04:10:54.206Z,2.41
2023-02-03T04:13:20.933Z,2.18
2023-02-03T04:15:47.907Z,1.90
2023-02-03T04:18:15.956Z,1.78
2023-02-03T04:20:43.403Z,2.15
2023-02-03T04:23:10.835Z,1.97
2023-02-03T04:25:37.747Z,1.53
2023-02-03T04:28:06.235Z,1.92
2023-02-03T04:30:33.245Z,1.77
2023-02-03T04:33:00.242Z,1.50
2023-02-03T04:35:27.170Z,1.31
2023-02-03T04:37:54.054Z,1.65
2023-02-03T04:40:20.766Z,1.84
2023-02-03T04:42:47.710Z,1.65
2023-02-03T04:45:14.577Z,1.64
2023-02-03T04:47:41.329Z,1.08
2023-02-03T04:50:08.725Z,0.76
2023-02-03T04:52:35.646Z,1.01
2023-02-03T04:55:04.203Z,0.54
2023-02-03T04:57:31.255Z,0.70
2023-02-03T04:59:58.189Z,0.92
2023-02-03T05:02:25.036Z,1.10
2023-02-03T05:04:52.103Z,0.99
2023-02-03T05:07:18.787Z,0.34
2023-02-03T05:09:45.631Z,0.91
2023-02-03T05:12:12.277Z,1.48
2023-02-03T05:14:39.206Z,1.16
2023-02-03T05:17:06.101Z,0.93
2023-02-03T05:19:32.787Z,1.12
2023-02-03T05:21:59.693Z,1.17
2023-02-03T05:24:26.553Z,1.24
2023-02-03T05:26:53.240Z,1.53
2023-02-03T05:29:20.128Z,1.62
2023-02-03T05:31:46.825Z,1.84
2023-02-03T05:34:13.682Z,2.28
2023-02-03T05:36:40.384Z,2.62
2023-02-03T05:39:07.326Z,2.64
2023-02-03T05:41:52.553Z,2.41
2023-02-03T05:44:22.429Z,2.31
2023-02-03T05:46:49.821Z,2.28
2023-02-03T05:49:16.987Z,2.65
2023-02-03T05:51:44.048Z,3.07
2023-02-03T05:54:10.979Z,3.07
2023-02-03T05:56:38.117Z,2.93
2023-02-03T05:59:05.727Z,2.72
2023-02-03T06:01:33.751Z,2.71
2023-02-03T06:04:01.540Z,2.86
2023-02-03T06:06:33.938Z,2.87
2023-02-03T06:09:01.912Z,2.62
2023-02-03T06:11:28.915Z,2.38
2023-02-03T06:13:58.723Z,2.52
2023-02-03T06:16:27.031Z,2.42
2023-02-03T06:18:55.159Z,2.30
2023-02-03T06:21:22.630Z,2.24
2023-02-03T06:23:49.551Z,2.29
2023-02-03T06:26:16.413Z,2.32
2023-02-03T06:28:43.149Z,2.20
2023-02-03T06:31:10.158Z,2.12
2023-02-03T06:33:37.131Z,2.11
2023-02-03T06:36:03.938Z,2.19
2023-02-03T06:38:30.833Z,2.11
2023-02-03T06:40:57.500Z,1.98
2023-02-03T06:43:24.354Z,1.96
2023-02-03T06:45:51.151Z,1.93
2023-02-03T06:48:18.166Z,1.96
2023-02-03T06:50:47.539Z,2.05
2023-02-03T06:53:15.418Z,2.04
2023-02-03T06:55:42.454Z,1.99
2023-02-03T06:58:09.365Z,2.07
2023-02-03T07:00:36.365Z,2.09
2023-02-03T07:03:03.509Z,2.39
2023-02-03T07:05:30.768Z,2.22
2023-02-03T07:07:57.700Z,2.24
2023-02-03T07:10:24.639Z,2.16
2023-02-03T07:12:51.999Z,1.98
2023-02-03T07:15:19.232Z,2.26
2023-02-03T07:17:54.733Z,2.05
2023-02-03T07:20:22.811Z,2.31
2023-02-03T07:22:57.337Z,2.28
2023-02-03T07:25:24.804Z,2.12
2023-02-03T07:27:51.725Z,2.40
2023-02-03T07:30:18.914Z,2.20
2023-02-03T07:32:50.323Z,2.01
2023-02-03T07:35:17.756Z,1.57
2023-02-03T07:37:44.884Z,1.58
2023-02-03T07:40:13.018Z,1.69
2023-02-03T07:42:44.243Z,1.91
2023-02-03T07:45:12.160Z,1.91
2023-02-03T07:47:39.260Z,1.95
2023-02-03T07:50:06.457Z,2.03
2023-02-03T07:52:33.337Z,2.05
2023-02-03T07:55:00.054Z,1.91
2023-02-03T07:57:27.600Z,2.11
2023-02-03T07:59:54.549Z,2.10
2023-02-03T08:02:21.434Z,2.17
2023-02-03T08:04:48.163Z,2.08
2023-02-03T08:07:15.072Z,2.18
2023-02-03T08:09:41.737Z,1.98
2023-02-03T08:12:08.655Z,2.07
2023-02-03T08:14:35.502Z,2.12
2023-02-03T08:17:02.134Z,2.44
2023-02-03T08:19:29.351Z,2.35
2023-02-03T08:21:56.947Z,2.33
2023-02-03T08:24:23.901Z,2.21
2023-02-03T08:26:50.777Z,2.40
2023-02-03T08:29:17.442Z,2.41
2023-02-03T08:31:44.735Z,2.58
2023-02-03T08:34:11.663Z,2.61
2023-02-03T08:36:40.177Z,2.50
2023-02-03T08:39:07.712Z,2.57
2023-02-03T08:41:34.636Z,2.67
2023-02-03T08:44:01.939Z,2.59
2023-02-03T08:46:28.909Z,2.35
2023-02-03T08:48:56.691Z,2.28
2023-02-03T08:51:24.681Z,2.25
2023-02-03T08:53:51.971Z,2.37
2023-02-03T08:56:18.925Z,2.47
2023-02-03T08:58:45.853Z,2.72
2023-02-03T09:01:14.701Z,2.76
2023-02-03T09:03:41.657Z,2.86
2023-02-03T09:06:11.875Z,2.87
2023-02-03T09:08:39.461Z,3.03
2023-02-03T09:11:13.907Z,2.83
2023-02-03T09:13:41.134Z,3.01
2023-02-03T09:16:08.575Z,2.73
2023-02-03T09:18:35.703Z,2.84
2023-02-03T09:21:04.205Z,2.76
2023-02-03T09:23:31.207Z,2.83
2023-02-03T09:26:07.525Z,2.71
2023-02-03T09:28:34.794Z,2.79
2023-02-03T09:31:04.868Z,2.81
2023-02-03T09:33:31.899Z,2.80
2023-02-03T09:35:59.286Z,2.83
2023-02-03T09:38:27.222Z,3.02
2023-02-03T09:41:16.038Z,2.96
2023-02-03T09:43:57.404Z,3.18
2023-02-03T09:46:30.110Z,3.08
2023-02-03T09:49:17.572Z,3.19
2023-02-03T09:51:54.361Z,3.28
2023-02-03T09:54:36.213Z,3.27
2023-02-03T09:57:05.980Z,3.37
2023-02-03T09:59:35.056Z,3.43
2023-02-03T10:02:23.716Z,3.29
2023-02-03T10:05:12.571Z,3.36
2023-02-03T10:08:26.056Z,3.31
2023-02-03T10:11:10.472Z,3.64
2023-02-03T10:13:40.239Z,3.45
2023-02-03T10:16:16.848Z,3.25
2023-02-03T10:18:51.095Z,3.24
2023-02-03T10:21:39.118Z,3.17
2023-02-03T10:24:41.425Z,3.27
2023-02-03T10:27:17.658Z,3.30
2023-02-03T10:29:44.993Z,3.00
2023-02-03T10:32:13.060Z,3.02
2023-02-03T10:34:40.397Z,2.83
2023-02-03T10:37:32.213Z,2.73
2023-02-03T10:40:03.341Z,2.64
2023-02-03T10:42:50.814Z,2.60
2023-02-03T10:45:17.928Z,2.57
2023-02-03T10:47:48.947Z,2.80
2023-02-03T10:50:21.936Z,3.10
2023-02-03T10:52:49.030Z,3.19
2023-02-03T10:55:23.018Z,3.22
2023-02-03T10:57:50.229Z,3.08
2023-02-03T11:00:22.427Z,2.88
2023-02-03T11:02:58.128Z,2.96
2023-02-03T11:05:26.588Z,2.81
2023-02-03T11:07:54.216Z,2.75
2023-02-03T11:10:31.020Z,2.84
2023-02-03T11:16:06.428Z,2.89
2023-02-03T11:18:53.513Z,3.32
2023-02-03T11:24:34.065Z,3.66
2023-02-03T11:27:07.154Z,3.41
2023-02-03T11:29:36.333Z,3.75
2023-02-03T11:32:16.482Z,3.55
2023-02-03T11:34:55.656Z,3.65
2023-02-03T11:37:32.629Z,3.67
2023-02-03T11:40:08.578Z,3.77
2023-02-03T11:42:37.696Z,3.38
2023-02-03T11:45:26.684Z,3.43
2023-02-03T11:48:02.274Z,3.41
2023-02-03T11:50:38.803Z,3.32
2023-02-03T11:53:27.087Z,3.37
2023-02-03T11:56:14.676Z,3.53
2023-02-03T11:59:03.005Z,3.64
2023-02-03T12:02:10.599Z,3.64
2023-02-03T12:04:49.337Z,3.67
2023-02-03T12:07:31.099Z,3.83
2023-02-03T12:10:36.337Z,3.90
2023-02-03T12:13:30.428Z,4.06
2023-02-03T12:16:13.072Z,4.02
2023-02-03T12:18:42.954Z,4.13
2023-02-03T12:21:43.652Z,4.33
2023-02-03T12:27:10.866Z,4.27
2023-02-03T12:29:44.151Z,4.32
2023-02-03T12:32:17.547Z,4.38
2023-02-03T12:35:27.168Z,4.53
2023-02-03T12:37:58.898Z,4.44
2023-02-03T12:40:49.661Z,4.61
2023-02-03T12:43:49.373Z,4.53
2023-02-03T12:46:22.771Z,4.37
2023-02-03T12:49:12.982Z,4.88
2023-02-03T12:51:56.130Z,4.89
2023-02-03T12:54:32.840Z,4.83
2023-02-03T12:57:18.883Z,4.78
2023-02-03T12:59:57.743Z,5.07
2023-02-03T13:02:31.321Z,5.31
2023-02-03T13:05:05.226Z,5.12
2023-02-03T13:07:48.311Z,5.47
2023-02-03T13:10:21.921Z,5.43
2023-02-03T13:12:55.265Z,5.61
2023-02-03T13:15:28.658Z,5.46
2023-02-03T13:18:22.059Z,5.62
2023-02-03T13:20:48.997Z,5.82
2023-02-03T13:23:16.074Z,5.95
2023-02-03T13:26:13.250Z,5.91
2023-02-03T13:28:53.450Z,5.98
2023-02-03T13:31:38.946Z,5.87
2023-02-03T13:34:20.296Z,5.98
2023-02-03T13:37:18.295Z,6.04
2023-02-03T13:40:14.109Z,5.97
2023-02-03T13:42:47.541Z,5.81
2023-02-03T13:45:29.567Z,5.93
2023-02-03T13:48:06.292Z,5.71
2023-02-03T13:50:33.373Z,5.87
2023-02-03T13:53:19.858Z,5.75
2023-02-03T13:55:57.403Z,5.58
2023-02-03T13:58:32.993Z,5.63
2023-02-03T14:01:23.822Z,5.74
2023-02-03T14:03:50.808Z,5.51
2023-02-03T14:06:49.943Z,5.43
2023-02-03T14:09:34.296Z,5.43
2023-02-03T14:12:29.844Z,5.08
2023-02-03T14:15:04.336Z,5.26
2023-02-03T14:17:43.238Z,4.98
2023-02-03T14:20:25.394Z,5.11
2023-02-03T14:22:59.101Z,5.44
2023-02-03T14:25:27.329Z,5.47
2023-02-03T14:28:06.256Z,5.41
2023-02-03T14:30:33.419Z,5.59
2023-02-03T14:33:03.078Z,5.44
2023-02-03T14:35:30.202Z,5.04
2023-02-03T14:38:11.497Z,5.33
2023-02-03T14:41:00.517Z,5.36
2023-02-03T14:43:40.355Z,5.44
2023-02-03T14:46:13.407Z,5.15
2023-02-03T14:49:05.579Z,5.19
2023-02-03T14:52:09.864Z,5.31
2023-02-03T14:55:15.157Z,5.08
2023-02-03T14:57:49.258Z,5.32
2023-02-03T15:00:19.360Z,5.55
2023-02-03T15:03:12.123Z,5.49
2023-02-03T15:06:01.311Z,5.63
2023-02-03T15:08:36.743Z,5.61
2023-02-03T15:11:28.652Z,5.72
2023-02-03T15:13:57.515Z,5.62
2023-02-03T15:16:25.524Z,5.38
2023-02-03T15:19:00.813Z,5.39
2023-02-03T15:21:27.737Z,5.39
2023-02-03T15:23:55.951Z,5.19
2023-02-03T15:26:25.504Z,5.54
2023-02-03T15:29:00.917Z,5.70
2023-02-03T15:31:46.728Z,5.56
2023-02-03T15:34:30.821Z,5.54
2023-02-03T15:37:02.912Z,5.72
2023-02-03T15:39:46.127Z,5.57
2023-02-03T15:42:21.402Z,5.59
2023-02-03T15:44:58.945Z,5.95
2023-02-03T15:47:36.125Z,5.68
2023-02-03T15:50:08.348Z,5.76
2023-02-03T15:52:37.906Z,5.72
2023-02-03T15:55:32.108Z,5.46
2023-02-03T15:57:59.268Z,5.42
2023-02-03T16:00:32.665Z,5.70
2023-02-03T16:03:00.542Z,5.51
2023-02-03T16:05:33.553Z,5.55
2023-02-03T16:08:31.081Z,5.17
2023-02-03T16:10:57.985Z,5.25
2023-02-03T16:13:27.380Z,5.44
2023-02-03T16:16:14.479Z,5.38
2023-02-03T16:18:41.862Z,5.51
2023-02-03T16:21:25.430Z,5.36
2023-02-03T16:23:52.349Z,5.21
2023-02-03T16:26:21.100Z,5.14
2023-02-03T16:29:16.381Z,5.12
2023-02-03T16:32:03.949Z,5.21
2023-02-03T16:34:49.667Z,5.21
2023-02-03T16:37:53.639Z,5.28
2023-02-03T16:40:41.190Z,5.21
2023-02-03T16:43:31.782Z,5.14
2023-02-03T16:46:18.405Z,5.34
2023-02-03T16:49:03.890Z,5.40
2023-02-03T16:51:41.440Z,5.49
2023-02-03T16:54:18.332Z,5.53
2023-02-03T16:56:45.271Z,5.56
2023-02-03T16:59:12.145Z,5.58
2023-02-03T17:01:39.449Z,5.77
2023-02-03T17:04:06.466Z,5.59
2023-02-03T17:06:33.633Z,5.43
2023-02-03T17:09:00.482Z,5.46
2023-02-03T17:11:27.420Z,5.41
2023-02-03T17:13:54.293Z,5.50
2023-02-03T17:16:23.297Z,5.55
2023-02-03T17:18:50.473Z,5.52
2023-02-03T17:21:20.152Z,5.63
2023-02-03T17:23:47.081Z,5.73
2023-02-03T17:26:14.025Z,5.79
2023-02-03T17:28:43.309Z,5.74
2023-02-03T17:31:16.285Z,5.64
2023-02-03T17:33:43.493Z,5.67
2023-02-03T17:36:13.247Z,5.70
2023-02-03T17:55:10.081Z,5.74
2023-02-03T17:57:40.176Z,5.73
2023-02-03T18:00:07.505Z,5.81
2023-02-03T18:02:34.390Z,5.74
2023-02-03T18:05:01.269Z,5.43
2023-02-03T18:07:28.116Z,5.43
2023-02-03T18:09:55.045Z,5.38
2023-02-03T18:12:21.917Z,5.14
2023-02-03T18:14:49.454Z,5.20
2023-02-03T18:17:16.293Z,5.11
2023-02-03T18:19:46.724Z,5.23
2023-02-03T18:22:16.127Z,5.19
2023-02-03T18:24:45.073Z,5.52
2023-02-03T18:27:16.953Z,5.60
2023-02-03T18:29:45.428Z,5.96
2023-02-03T18:32:13.427Z,6.13
2023-02-03T18:34:40.306Z,6.37
2023-02-03T18:37:07.459Z,6.49
2023-02-03T18:39:34.400Z,6.64
2023-02-03T18:42:01.289Z,6.74
2023-02-03T18:44:28.291Z,6.72
2023-02-03T18:46:55.261Z,6.63
2023-02-03T18:49:22.824Z,6.73
2023-02-03T18:51:49.762Z,6.62
2023-02-03T18:54:16.622Z,6.61
2023-02-03T18:56:43.524Z,6.76
2023-02-03T18:59:11.397Z,6.66
2023-02-03T19:01:39.214Z,6.53
2023-02-03T19:04:06.872Z,6.70
2023-02-03T19:06:34.534Z,6.70
2023-02-03T19:09:01.726Z,6.54
2023-02-03T19:11:28.627Z,6.55
2023-02-03T19:13:55.715Z,6.17
2023-02-03T19:16:22.691Z,6.17
2023-02-03T19:18:49.557Z,6.32
2023-02-03T19:21:17.638Z,6.40
2023-02-03T19:23:44.917Z,6.23
2023-02-03T19:26:12.263Z,6.01
2023-02-03T19:28:40.215Z,6.16
2023-02-03T19:31:09.489Z,5.82
2023-02-03T19:33:37.326Z,5.79
2023-02-03T19:36:05.699Z,5.89
2023-02-03T19:38:32.636Z,5.84
2023-02-03T19:41:01.766Z,5.60
2023-02-03T19:43:31.950Z,5.75
2023-02-03T19:45:59.358Z,5.56
2023-02-03T19:48:26.296Z,5.63
2023-02-03T19:50:53.213Z,5.56
2023-02-03T19:53:21.481Z,5.56
2023-02-03T19:55:48.470Z,5.50
2023-02-03T19:58:15.331Z,5.60
2023-02-03T20:00:43.198Z,5.55
2023-02-03T20:03:10.532Z,5.67
2023-02-03T20:05:37.507Z,5.90
2023-02-03T20:08:05.161Z,5.74
2023-02-03T20:10:33.027Z,5.42
2023-02-03T20:13:00.459Z,4.79
2023-02-03T20:15:27.628Z,4.30
2023-02-03T20:17:54.563Z,4.15
2023-02-03T20:20:21.642Z,4.12
2023-02-03T20:22:49.302Z,4.24
2023-02-03T20:25:16.555Z,4.03
2023-02-03T20:27:43.503Z,3.99
2023-02-03T20:30:11.314Z,3.84
2023-02-03T20:32:38.522Z,3.97
2023-02-03T20:35:06.415Z,4.01
2023-02-03T20:37:33.501Z,4.18
2023-02-03T20:40:00.384Z,4.20
2023-02-03T20:42:27.246Z,4.44
2023-02-03T20:44:54.397Z,4.23
2023-02-03T20:47:22.771Z,4.32
2023-02-03T20:49:49.928Z,4.23
2023-02-03T20:52:18.717Z,4.22
2023-02-03T20:54:46.341Z,4.27
2023-02-03T20:57:18.784Z,4.30
2023-02-03T20:59:46.303Z,4.05
2023-02-03T21:02:31.002Z,4.26
2023-02-03T21:04:57.927Z,4.09
2023-02-03T21:07:30.937Z,4.27
2023-02-03T21:10:18.338Z,4.19
2023-02-03T21:12:45.173Z,4.09
2023-02-03T21:15:19.116Z,4.27
2023-02-03T21:17:46.108Z,4.07
2023-02-03T21:20:32.376Z,3.88
2023-02-03T21:22:59.467Z,4.09
2023-02-03T21:25:28.854Z,4.40
2023-02-03T21:27:58.306Z,4.29
2023-02-03T21:30:34.959Z,4.54
2023-02-03T21:33:29.555Z,4.38
2023-02-03T21:35:56.543Z,4.75
2023-02-03T21:38:28.556Z,4.74
2023-02-03T21:40:55.481Z,4.85
2023-02-03T21:43:24.194Z,5.00
2023-02-03T21:45:51.649Z,5.03
2023-02-03T21:48:32.962Z,5.10
2023-02-03T21:51:04.974Z,5.04
2023-02-03T21:53:36.082Z,4.84
2023-02-03T21:56:27.082Z,4.56
2023-02-03T21:58:58.998Z,4.56
2023-02-03T22:01:26.784Z,4.49
2023-02-03T22:03:55.474Z,4.52
2023-02-03T22:06:24.106Z,4.51
2023-02-03T22:08:53.495Z,4.59
2023-02-03T22:11:21.819Z,4.52
2023-02-03T22:13:48.951Z,4.66
2023-02-03T22:16:17.407Z,4.73
2023-02-03T22:18:48.245Z,4.76
2023-02-03T22:21:15.710Z,4.83
2023-02-03T22:23:42.907Z,5.01
2023-02-03T22:26:10.697Z,4.78
2023-02-03T22:28:38.119Z,4.92
2023-02-03T22:31:05.809Z,5.25
2023-02-03T22:33:32.687Z,5.09
2023-02-03T22:35:59.689Z,5.18
2023-02-03T22:38:26.680Z,5.14
2023-02-03T22:40:53.674Z,4.86
2023-02-03T22:43:20.907Z,5.09
2023-02-03T22:45:47.839Z,5.36
2023-02-03T22:48:14.713Z,5.39
2023-02-03T22:50:41.865Z,5.36
2023-02-03T22:53:09.534Z,5.34
2023-02-03T22:55:37.996Z,5.23
2023-02-03T22:58:06.013Z,5.40
2023-02-03T23:00:33.774Z,5.55
2023-02-03T23:03:01.148Z,5.37
2023-02-03T23:05:28.065Z,5.60
2023-02-03T23:07:55.026Z,5.40
2023-02-03T23:10:25.063Z,5.57
2023-02-03T23:12:52.347Z,5.48
2023-02-03T23:15:19.579Z,5.49
2023-02-03T23:17:46.528Z,5.44
2023-02-03T23:20:14.944Z,5.52
2023-02-03T23:22:42.609Z,5.58
2023-02-03T23:25:09.909Z,5.57
2023-02-03T23:27:37.016Z,5.68
2023-02-03T23:30:04.865Z,5.60
2023-02-03T23:32:33.880Z,5.72
2023-02-03T23:35:20.604Z,5.76
2023-02-03T23:37:47.604Z,5.92
2023-02-03T23:40:14.973Z,5.68
2023-02-03T23:42:42.065Z,5.75
2023-02-03T23:45:12.314Z,5.63
2023-02-03T23:47:43.438Z,5.47
2023-02-03T23:50:12.956Z,5.73
2023-02-03T23:52:39.826Z,5.70
2023-02-03T23:55:12.270Z,5.74
2023-02-03T23:57:39.374Z,5.63
